sensor_id;sensor_type;location;lat;lon;timestamp;P1;durP1;ratioP1;P2;durP2;ratioP2
22812;SDS011;11573;51.334;3.244;2023-03-13T00:01:13;22.85;;;5.40;;
22812;SDS011;11573;51.334;3.244;2023-03-13T00:03:40;20.92;;;5.95;;
22812;SDS011;11573;51.334;3.244;2023-03-13T00:06:07;22.52;;;4.93;;
22812;SDS011;11573;51.334;3.244;2023-03-13T00:08:34;20.80;;;5.28;;
22812;SDS011;11573;51.334;3.244;2023-03-13T00:11:02;20.00;;;5.93;;
22812;SDS011;11573;51.334;3.244;2023-03-13T00:13:30;16.25;;;4.85;;
22812;SDS011;11573;51.334;3.244;2023-03-13T00:16:01;21.60;;;5.65;;
22812;SDS011;11573;51.334;3.244;2023-03-13T00:18:31;21.20;;;5.45;;
22812;SDS011;11573;51.334;3.244;2023-03-13T00:21:02;18.08;;;5.20;;
22812;SDS011;11573;51.334;3.244;2023-03-13T00:23:32;15.65;;;5.30;;
22812;SDS011;11573;51.334;3.244;2023-03-13T00:26:04;20.48;;;4.80;;
22812;SDS011;11573;51.334;3.244;2023-03-13T00:28:33;16.10;;;4.60;;
22812;SDS011;11573;51.334;3.244;2023-03-13T00:31:03;24.67;;;5.65;;
22812;SDS011;11573;51.334;3.244;2023-03-13T00:33:34;21.77;;;5.03;;
22812;SDS011;11573;51.334;3.244;2023-03-13T00:36:03;18.00;;;6.45;;
22812;SDS011;11573;51.334;3.244;2023-03-13T00:38:31;18.50;;;5.13;;
22812;SDS011;11573;51.334;3.244;2023-03-13T00:41:10;16.73;;;5.35;;
22812;SDS011;11573;51.334;3.244;2023-03-13T00:43:39;23.98;;;6.28;;
22812;SDS011;11573;51.334;3.244;2023-03-13T00:46:07;16.45;;;5.93;;
22812;SDS011;11573;51.334;3.244;2023-03-13T00:48:35;18.77;;;5.72;;
22812;SDS011;11573;51.334;3.244;2023-03-13T00:51:04;18.27;;;6.10;;
22812;SDS011;11573;51.334;3.244;2023-03-13T00:53:31;14.35;;;5.75;;
22812;SDS011;11573;51.334;3.244;2023-03-13T00:58:31;13.07;;;5.63;;
22812;SDS011;11573;51.334;3.244;2023-03-13T01:03:37;12.80;;;5.05;;
22812;SDS011;11573;51.334;3.244;2023-03-13T01:06:07;16.40;;;5.93;;
22812;SDS011;11573;51.334;3.244;2023-03-13T01:08:36;11.30;;;4.95;;
22812;SDS011;11573;51.334;3.244;2023-03-13T01:11:05;18.23;;;5.43;;
22812;SDS011;11573;51.334;3.244;2023-03-13T01:13:34;10.05;;;5.18;;
22812;SDS011;11573;51.334;3.244;2023-03-13T01:16:03;17.05;;;4.95;;
22812;SDS011;11573;51.334;3.244;2023-03-13T01:18:33;9.73;;;4.80;;
22812;SDS011;11573;51.334;3.244;2023-03-13T01:21:01;14.23;;;5.07;;
22812;SDS011;11573;51.334;3.244;2023-03-13T01:23:29;10.25;;;5.07;;
22812;SDS011;11573;51.334;3.244;2023-03-13T01:25:56;11.77;;;4.40;;
22812;SDS011;11573;51.334;3.244;2023-03-13T01:28:24;12.00;;;4.55;;
22812;SDS011;11573;51.334;3.244;2023-03-13T01:30:52;10.60;;;4.47;;
22812;SDS011;11573;51.334;3.244;2023-03-13T01:33:19;5.82;;;3.97;;
22812;SDS011;11573;51.334;3.244;2023-03-13T01:35:46;5.82;;;4.03;;
22812;SDS011;11573;51.334;3.244;2023-03-13T01:38:13;12.95;;;4.95;;
22812;SDS011;11573;51.334;3.244;2023-03-13T01:43:16;9.32;;;4.55;;
22812;SDS011;11573;51.334;3.244;2023-03-13T01:52:08;6.70;;;4.05;;
22812;SDS011;11573;51.334;3.244;2023-03-13T01:54:53;8.13;;;4.55;;
22812;SDS011;11573;51.334;3.244;2023-03-13T01:57:47;11.32;;;5.43;;
22812;SDS011;11573;51.334;3.244;2023-03-13T02:00:23;12.98;;;4.70;;
22812;SDS011;11573;51.334;3.244;2023-03-13T02:02:55;13.07;;;5.47;;
22812;SDS011;11573;51.334;3.244;2023-03-13T02:05:26;12.32;;;5.60;;
22812;SDS011;11573;51.334;3.244;2023-03-13T02:07:58;12.70;;;5.22;;
22812;SDS011;11573;51.334;3.244;2023-03-13T02:10:27;10.65;;;5.03;;
22812;SDS011;11573;51.334;3.244;2023-03-13T02:12:56;9.88;;;4.40;;
22812;SDS011;11573;51.334;3.244;2023-03-13T02:15:26;11.90;;;4.88;;
22812;SDS011;11573;51.334;3.244;2023-03-13T02:17:53;8.60;;;5.10;;
22812;SDS011;11573;51.334;3.244;2023-03-13T02:20:22;8.65;;;4.90;;
22812;SDS011;11573;51.334;3.244;2023-03-13T02:26:08;8.70;;;5.30;;
22812;SDS011;11573;51.334;3.244;2023-03-13T02:28:32;14.13;;;4.95;;
22812;SDS011;11573;51.334;3.244;2023-03-13T02:31:08;12.23;;;6.22;;
22812;SDS011;11573;51.334;3.244;2023-03-13T02:33:37;10.70;;;5.72;;
22812;SDS011;11573;51.334;3.244;2023-03-13T02:36:08;13.10;;;6.15;;
22812;SDS011;11573;51.334;3.244;2023-03-13T02:38:41;13.70;;;6.45;;
22812;SDS011;11573;51.334;3.244;2023-03-13T02:41:23;13.98;;;5.72;;
22812;SDS011;11573;51.334;3.244;2023-03-13T02:43:53;11.68;;;5.93;;
22812;SDS011;11573;51.334;3.244;2023-03-13T02:46:20;12.02;;;6.35;;
22812;SDS011;11573;51.334;3.244;2023-03-13T02:48:54;15.32;;;6.13;;
22812;SDS011;11573;51.334;3.244;2023-03-13T02:51:28;19.92;;;6.43;;
22812;SDS011;11573;51.334;3.244;2023-03-13T02:54:02;14.48;;;5.55;;
22812;SDS011;11573;51.334;3.244;2023-03-13T02:56:32;10.90;;;5.80;;
22812;SDS011;11573;51.334;3.244;2023-03-13T02:59:03;16.35;;;6.50;;
22812;SDS011;11573;51.334;3.244;2023-03-13T03:01:30;15.90;;;6.63;;
22812;SDS011;11573;51.334;3.244;2023-03-13T03:03:58;17.02;;;6.05;;
22812;SDS011;11573;51.334;3.244;2023-03-13T03:06:25;14.13;;;7.22;;
22812;SDS011;11573;51.334;3.244;2023-03-13T03:08:54;13.30;;;5.93;;
22812;SDS011;11573;51.334;3.244;2023-03-13T03:11:21;17.00;;;6.18;;
22812;SDS011;11573;51.334;3.244;2023-03-13T03:13:54;20.27;;;6.85;;
22812;SDS011;11573;51.334;3.244;2023-03-13T03:16:21;13.80;;;5.80;;
22812;SDS011;11573;51.334;3.244;2023-03-13T03:18:48;12.30;;;6.53;;
22812;SDS011;11573;51.334;3.244;2023-03-13T03:21:16;13.55;;;6.18;;
22812;SDS011;11573;51.334;3.244;2023-03-13T03:23:42;16.48;;;6.47;;
22812;SDS011;11573;51.334;3.244;2023-03-13T03:26:09;23.25;;;6.78;;
22812;SDS011;11573;51.334;3.244;2023-03-13T03:28:37;16.10;;;5.80;;
22812;SDS011;11573;51.334;3.244;2023-03-13T03:31:09;13.10;;;5.32;;
22812;SDS011;11573;51.334;3.244;2023-03-13T03:33:39;18.65;;;5.82;;
22812;SDS011;11573;51.334;3.244;2023-03-13T03:36:11;12.93;;;5.30;;
22812;SDS011;11573;51.334;3.244;2023-03-13T03:38:41;13.20;;;5.13;;
22812;SDS011;11573;51.334;3.244;2023-03-13T03:41:11;15.02;;;4.78;;
22812;SDS011;11573;51.334;3.244;2023-03-13T03:43:42;13.25;;;5.28;;
22812;SDS011;11573;51.334;3.244;2023-03-13T03:46:12;9.68;;;4.57;;
22812;SDS011;11573;51.334;3.244;2023-03-13T03:48:40;13.43;;;4.65;;
22812;SDS011;11573;51.334;3.244;2023-03-13T03:51:09;14.13;;;5.07;;
22812;SDS011;11573;51.334;3.244;2023-03-13T03:53:39;10.35;;;4.22;;
22812;SDS011;11573;51.334;3.244;2023-03-13T03:56:06;12.60;;;4.60;;
22812;SDS011;11573;51.334;3.244;2023-03-13T03:58:38;19.60;;;4.45;;
22812;SDS011;11573;51.334;3.244;2023-03-13T04:01:25;16.67;;;5.20;;
22812;SDS011;11573;51.334;3.244;2023-03-13T04:03:52;12.43;;;4.35;;
22812;SDS011;11573;51.334;3.244;2023-03-13T04:06:19;12.60;;;4.10;;
22812;SDS011;11573;51.334;3.244;2023-03-13T04:08:46;14.55;;;4.88;;
22812;SDS011;11573;51.334;3.244;2023-03-13T04:11:16;16.40;;;4.45;;
22812;SDS011;11573;51.334;3.244;2023-03-13T04:13:48;17.33;;;5.05;;
22812;SDS011;11573;51.334;3.244;2023-03-13T04:16:15;12.82;;;4.40;;
22812;SDS011;11573;51.334;3.244;2023-03-13T04:18:43;16.95;;;4.63;;
22812;SDS011;11573;51.334;3.244;2023-03-13T04:21:11;18.90;;;4.38;;
22812;SDS011;11573;51.334;3.244;2023-03-13T04:23:55;14.85;;;4.30;;
22812;SDS011;11573;51.334;3.244;2023-03-13T04:26:23;13.50;;;4.40;;
22812;SDS011;11573;51.334;3.244;2023-03-13T04:28:52;19.45;;;4.35;;
22812;SDS011;11573;51.334;3.244;2023-03-13T04:31:31;15.30;;;3.97;;
22812;SDS011;11573;51.334;3.244;2023-03-13T04:34:13;14.32;;;4.03;;
22812;SDS011;11573;51.334;3.244;2023-03-13T04:36:51;15.60;;;4.28;;
22812;SDS011;11573;51.334;3.244;2023-03-13T04:42:20;17.55;;;4.28;;
22812;SDS011;11573;51.334;3.244;2023-03-13T04:44:52;16.17;;;3.90;;
22812;SDS011;11573;51.334;3.244;2023-03-13T04:47:37;17.77;;;4.65;;
22812;SDS011;11573;51.334;3.244;2023-03-13T04:50:27;12.73;;;4.03;;
22812;SDS011;11573;51.334;3.244;2023-03-13T04:53:09;13.90;;;4.57;;
22812;SDS011;11573;51.334;3.244;2023-03-13T04:56:03;15.48;;;4.70;;
22812;SDS011;11573;51.334;3.244;2023-03-13T04:58:50;13.82;;;4.25;;
22812;SDS011;11573;51.334;3.244;2023-03-13T05:01:44;12.50;;;3.88;;
22812;SDS011;11573;51.334;3.244;2023-03-13T05:04:19;17.90;;;4.32;;
22812;SDS011;11573;51.334;3.244;2023-03-13T05:07:18;14.90;;;4.40;;
22812;SDS011;11573;51.334;3.244;2023-03-13T05:10:03;17.00;;;4.43;;
22812;SDS011;11573;51.334;3.244;2023-03-13T05:12:49;18.38;;;4.28;;
22812;SDS011;11573;51.334;3.244;2023-03-13T05:15:51;10.98;;;4.05;;
22812;SDS011;11573;51.334;3.244;2023-03-13T05:18:21;16.38;;;4.47;;
22812;SDS011;11573;51.334;3.244;2023-03-13T05:21:02;13.32;;;3.97;;
22812;SDS011;11573;51.334;3.244;2023-03-13T05:23:48;16.25;;;4.30;;
22812;SDS011;11573;51.334;3.244;2023-03-13T05:26:44;15.55;;;4.20;;
22812;SDS011;11573;51.334;3.244;2023-03-13T05:29:40;10.82;;;4.47;;
22812;SDS011;11573;51.334;3.244;2023-03-13T05:32:40;17.88;;;4.95;;
22812;SDS011;11573;51.334;3.244;2023-03-13T05:35:21;19.50;;;4.63;;
22812;SDS011;11573;51.334;3.244;2023-03-13T05:38:00;11.43;;;4.53;;
22812;SDS011;11573;51.334;3.244;2023-03-13T05:40:47;15.73;;;5.22;;
22812;SDS011;11573;51.334;3.244;2023-03-13T05:43:32;15.52;;;4.43;;
22812;SDS011;11573;51.334;3.244;2023-03-13T05:46:21;13.23;;;4.25;;
22812;SDS011;11573;51.334;3.244;2023-03-13T05:48:55;19.38;;;4.78;;
22812;SDS011;11573;51.334;3.244;2023-03-13T05:51:41;14.98;;;4.60;;
22812;SDS011;11573;51.334;3.244;2023-03-13T05:54:40;16.00;;;5.32;;
22812;SDS011;11573;51.334;3.244;2023-03-13T05:57:23;21.15;;;5.18;;
22812;SDS011;11573;51.334;3.244;2023-03-13T06:00:05;18.42;;;5.00;;
22812;SDS011;11573;51.334;3.244;2023-03-13T06:02:42;18.13;;;5.05;;
22812;SDS011;11573;51.334;3.244;2023-03-13T06:05:15;19.73;;;5.85;;
22812;SDS011;11573;51.334;3.244;2023-03-13T06:07:43;17.30;;;5.18;;
22812;SDS011;11573;51.334;3.244;2023-03-13T06:10:10;22.23;;;5.78;;
22812;SDS011;11573;51.334;3.244;2023-03-13T06:12:38;16.73;;;4.78;;
22812;SDS011;11573;51.334;3.244;2023-03-13T06:15:08;15.90;;;5.65;;
22812;SDS011;11573;51.334;3.244;2023-03-13T06:17:54;15.95;;;5.00;;
22812;SDS011;11573;51.334;3.244;2023-03-13T06:20:21;14.38;;;5.13;;
22812;SDS011;11573;51.334;3.244;2023-03-13T06:22:48;19.75;;;5.53;;
22812;SDS011;11573;51.334;3.244;2023-03-13T06:25:14;18.92;;;5.25;;
22812;SDS011;11573;51.334;3.244;2023-03-13T06:27:41;16.73;;;5.00;;
22812;SDS011;11573;51.334;3.244;2023-03-13T06:30:08;24.00;;;5.45;;
22812;SDS011;11573;51.334;3.244;2023-03-13T06:32:36;12.27;;;4.18;;
22812;SDS011;11573;51.334;3.244;2023-03-13T06:35:03;17.63;;;4.43;;
22812;SDS011;11573;51.334;3.244;2023-03-13T06:37:31;18.15;;;4.65;;
22812;SDS011;11573;51.334;3.244;2023-03-13T06:39:59;8.18;;;3.85;;
22812;SDS011;11573;51.334;3.244;2023-03-13T06:42:26;12.77;;;4.78;;
22812;SDS011;11573;51.334;3.244;2023-03-13T06:44:53;15.82;;;4.63;;
22812;SDS011;11573;51.334;3.244;2023-03-13T06:47:19;12.18;;;4.20;;
22812;SDS011;11573;51.334;3.244;2023-03-13T06:49:46;14.38;;;3.80;;
22812;SDS011;11573;51.334;3.244;2023-03-13T06:52:13;13.52;;;4.30;;
22812;SDS011;11573;51.334;3.244;2023-03-13T06:54:40;11.73;;;4.30;;
22812;SDS011;11573;51.334;3.244;2023-03-13T06:57:07;9.23;;;3.70;;
22812;SDS011;11573;51.334;3.244;2023-03-13T06:59:34;13.82;;;4.57;;
22812;SDS011;11573;51.334;3.244;2023-03-13T07:02:01;12.80;;;4.18;;
22812;SDS011;11573;51.334;3.244;2023-03-13T07:04:28;13.88;;;3.70;;
22812;SDS011;11573;51.334;3.244;2023-03-13T07:06:55;15.65;;;4.07;;
22812;SDS011;11573;51.334;3.244;2023-03-13T07:09:22;13.30;;;4.22;;
22812;SDS011;11573;51.334;3.244;2023-03-13T07:11:49;14.48;;;4.20;;
22812;SDS011;11573;51.334;3.244;2023-03-13T07:14:16;11.77;;;4.55;;
22812;SDS011;11573;51.334;3.244;2023-03-13T07:16:43;13.48;;;3.50;;
22812;SDS011;11573;51.334;3.244;2023-03-13T07:19:11;10.65;;;4.05;;
22812;SDS011;11573;51.334;3.244;2023-03-13T07:21:39;14.70;;;3.85;;
22812;SDS011;11573;51.334;3.244;2023-03-13T07:24:06;16.70;;;3.60;;
22812;SDS011;11573;51.334;3.244;2023-03-13T07:26:33;10.50;;;3.58;;
22812;SDS011;11573;51.334;3.244;2023-03-13T07:29:00;15.05;;;3.47;;
22812;SDS011;11573;51.334;3.244;2023-03-13T07:31:27;8.18;;;3.63;;
22812;SDS011;11573;51.334;3.244;2023-03-13T07:33:55;9.88;;;3.15;;
22812;SDS011;11573;51.334;3.244;2023-03-13T07:36:22;10.85;;;3.40;;
22812;SDS011;11573;51.334;3.244;2023-03-13T07:38:50;15.45;;;3.08;;
22812;SDS011;11573;51.334;3.244;2023-03-13T07:41:18;9.07;;;2.40;;
22812;SDS011;11573;51.334;3.244;2023-03-13T07:43:45;13.82;;;3.30;;
22812;SDS011;11573;51.334;3.244;2023-03-13T07:46:13;14.05;;;3.03;;
22812;SDS011;11573;51.334;3.244;2023-03-13T07:48:44;12.30;;;2.55;;
22812;SDS011;11573;51.334;3.244;2023-03-13T07:51:16;8.07;;;2.53;;
22812;SDS011;11573;51.334;3.244;2023-03-13T07:53:50;10.65;;;3.13;;
22812;SDS011;11573;51.334;3.244;2023-03-13T07:56:19;8.63;;;2.47;;
22812;SDS011;11573;51.334;3.244;2023-03-13T07:58:48;10.80;;;3.22;;
22812;SDS011;11573;51.334;3.244;2023-03-13T08:01:17;5.75;;;2.20;;
22812;SDS011;11573;51.334;3.244;2023-03-13T08:03:45;9.70;;;3.05;;
22812;SDS011;11573;51.334;3.244;2023-03-13T08:06:20;7.55;;;2.30;;
22812;SDS011;11573;51.334;3.244;2023-03-13T08:08:49;9.50;;;2.35;;
22812;SDS011;11573;51.334;3.244;2023-03-13T08:11:20;8.80;;;2.60;;
22812;SDS011;11573;51.334;3.244;2023-03-13T08:13:50;5.25;;;2.13;;
22812;SDS011;11573;51.334;3.244;2023-03-13T08:16:19;7.40;;;2.05;;
22812;SDS011;11573;51.334;3.244;2023-03-13T08:18:51;7.57;;;2.00;;
22812;SDS011;11573;51.334;3.244;2023-03-13T08:21:21;9.52;;;2.40;;
22812;SDS011;11573;51.334;3.244;2023-03-13T08:23:54;5.82;;;1.92;;
22812;SDS011;11573;51.334;3.244;2023-03-13T08:26:24;7.95;;;2.58;;
22812;SDS011;11573;51.334;3.244;2023-03-13T08:29:00;11.80;;;2.20;;
22812;SDS011;11573;51.334;3.244;2023-03-13T08:31:29;10.60;;;2.38;;
22812;SDS011;11573;51.334;3.244;2023-03-13T08:33:58;6.13;;;2.05;;
22812;SDS011;11573;51.334;3.244;2023-03-13T08:36:35;6.63;;;1.88;;
22812;SDS011;11573;51.334;3.244;2023-03-13T08:39:04;6.32;;;2.05;;
22812;SDS011;11573;51.334;3.244;2023-03-13T08:41:42;7.43;;;2.15;;
22812;SDS011;11573;51.334;3.244;2023-03-13T08:44:10;6.63;;;2.05;;
22812;SDS011;11573;51.334;3.244;2023-03-13T08:46:39;7.85;;;1.70;;
22812;SDS011;11573;51.334;3.244;2023-03-13T08:49:07;6.35;;;2.13;;
22812;SDS011;11573;51.334;3.244;2023-03-13T08:51:34;4.85;;;1.70;;
22812;SDS011;11573;51.334;3.244;2023-03-13T08:54:02;3.80;;;1.60;;
22812;SDS011;11573;51.334;3.244;2023-03-13T08:56:30;6.97;;;1.98;;
22812;SDS011;11573;51.334;3.244;2023-03-13T08:58:58;4.97;;;2.10;;
22812;SDS011;11573;51.334;3.244;2023-03-13T09:01:30;6.30;;;1.88;;
22812;SDS011;11573;51.334;3.244;2023-03-13T09:03:58;4.43;;;1.63;;
22812;SDS011;11573;51.334;3.244;2023-03-13T09:06:30;7.18;;;1.90;;
22812;SDS011;11573;51.334;3.244;2023-03-13T09:08:58;6.57;;;1.92;;
22812;SDS011;11573;51.334;3.244;2023-03-13T09:11:26;9.40;;;2.45;;
22812;SDS011;11573;51.334;3.244;2023-03-13T09:13:53;11.38;;;2.55;;
22812;SDS011;11573;51.334;3.244;2023-03-13T09:16:22;9.43;;;2.20;;
22812;SDS011;11573;51.334;3.244;2023-03-13T09:18:50;9.40;;;2.60;;
22812;SDS011;11573;51.334;3.244;2023-03-13T09:21:18;9.13;;;2.70;;
22812;SDS011;11573;51.334;3.244;2023-03-13T09:23:47;11.45;;;2.67;;
22812;SDS011;11573;51.334;3.244;2023-03-13T09:26:15;7.63;;;2.70;;
22812;SDS011;11573;51.334;3.244;2023-03-13T09:28:42;10.15;;;2.67;;
22812;SDS011;11573;51.334;3.244;2023-03-13T09:31:11;10.57;;;2.58;;
22812;SDS011;11573;51.334;3.244;2023-03-13T09:33:43;9.98;;;2.53;;
22812;SDS011;11573;51.334;3.244;2023-03-13T09:36:11;6.68;;;2.10;;
22812;SDS011;11573;51.334;3.244;2023-03-13T09:38:38;4.53;;;1.98;;
22812;SDS011;11573;51.334;3.244;2023-03-13T09:46:41;12.23;;;2.65;;
22812;SDS011;11573;51.334;3.244;2023-03-13T09:51:49;8.18;;;2.55;;
22812;SDS011;11573;51.334;3.244;2023-03-13T09:56:56;7.57;;;2.60;;
22812;SDS011;11573;51.334;3.244;2023-03-13T09:59:35;8.48;;;2.58;;
22812;SDS011;11573;51.334;3.244;2023-03-13T10:02:34;10.52;;;3.00;;
22812;SDS011;11573;51.334;3.244;2023-03-13T10:05:34;13.23;;;3.10;;
22812;SDS011;11573;51.334;3.244;2023-03-13T10:08:07;11.25;;;2.65;;
22812;SDS011;11573;51.334;3.244;2023-03-13T10:10:46;11.52;;;2.97;;
22812;SDS011;11573;51.334;3.244;2023-03-13T10:16:07;14.23;;;3.28;;
22812;SDS011;11573;51.334;3.244;2023-03-13T10:18:37;15.45;;;3.55;;
22812;SDS011;11573;51.334;3.244;2023-03-13T10:21:11;12.75;;;3.38;;
22812;SDS011;11573;51.334;3.244;2023-03-13T10:26:38;13.73;;;3.45;;
22812;SDS011;11573;51.334;3.244;2023-03-13T10:31:56;16.33;;;3.33;;
22812;SDS011;11573;51.334;3.244;2023-03-13T10:34:49;19.08;;;3.63;;
22812;SDS011;11573;51.334;3.244;2023-03-13T10:40:13;18.08;;;3.88;;
22812;SDS011;11573;51.334;3.244;2023-03-13T10:42:51;18.35;;;4.35;;
22812;SDS011;11573;51.334;3.244;2023-03-13T10:45:24;22.88;;;4.05;;
22812;SDS011;11573;51.334;3.244;2023-03-13T10:47:53;14.07;;;3.42;;
22812;SDS011;11573;51.334;3.244;2023-03-13T10:50:25;15.32;;;3.88;;
22812;SDS011;11573;51.334;3.244;2023-03-13T10:52:53;11.00;;;3.13;;
22812;SDS011;11573;51.334;3.244;2023-03-13T10:55:21;12.85;;;3.28;;
22812;SDS011;11573;51.334;3.244;2023-03-13T10:57:59;15.27;;;3.65;;
22812;SDS011;11573;51.334;3.244;2023-03-13T11:00:32;15.40;;;3.05;;
22812;SDS011;11573;51.334;3.244;2023-03-13T11:03:05;14.52;;;3.55;;
22812;SDS011;11573;51.334;3.244;2023-03-13T11:05:53;22.70;;;3.80;;
22812;SDS011;11573;51.334;3.244;2023-03-13T11:08:23;13.80;;;3.78;;
22812;SDS011;11573;51.334;3.244;2023-03-13T11:16:09;23.17;;;4.97;;
22812;SDS011;11573;51.334;3.244;2023-03-13T11:32:22;17.42;;;4.47;;
22812;SDS011;11573;51.334;3.244;2023-03-13T11:34:57;18.20;;;4.57;;
22812;SDS011;11573;51.334;3.244;2023-03-13T11:37:27;17.75;;;4.60;;
22812;SDS011;11573;51.334;3.244;2023-03-13T11:40:01;18.10;;;3.95;;
22812;SDS011;11573;51.334;3.244;2023-03-13T11:43:00;21.00;;;4.35;;
22812;SDS011;11573;51.334;3.244;2023-03-13T11:59:12;23.65;;;4.68;;
22812;SDS011;11573;51.334;3.244;2023-03-13T12:01:43;23.27;;;5.10;;
22812;SDS011;11573;51.334;3.244;2023-03-13T12:04:27;20.25;;;4.68;;
22812;SDS011;11573;51.334;3.244;2023-03-13T12:15:39;24.25;;;5.10;;
22812;SDS011;11573;51.334;3.244;2023-03-13T12:21:00;18.33;;;4.93;;
22812;SDS011;11573;51.334;3.244;2023-03-13T12:26:15;21.63;;;4.72;;
22812;SDS011;11573;51.334;3.244;2023-03-13T12:31:20;24.67;;;5.22;;
22812;SDS011;11573;51.334;3.244;2023-03-13T12:37:00;22.90;;;5.68;;
22812;SDS011;11573;51.334;3.244;2023-03-13T12:39:48;20.27;;;5.07;;
22812;SDS011;11573;51.334;3.244;2023-03-13T12:45:24;27.40;;;5.65;;
22812;SDS011;11573;51.334;3.244;2023-03-13T12:48:35;30.95;;;6.32;;
22812;SDS011;11573;51.334;3.244;2023-03-13T12:56:12;23.48;;;4.78;;
22812;SDS011;11573;51.334;3.244;2023-03-13T12:58:46;28.70;;;5.30;;
22812;SDS011;11573;51.334;3.244;2023-03-13T13:03:55;22.70;;;5.18;;
22812;SDS011;11573;51.334;3.244;2023-03-13T13:06:48;29.58;;;5.90;;
22812;SDS011;11573;51.334;3.244;2023-03-13T13:09:19;22.73;;;5.28;;
22812;SDS011;11573;51.334;3.244;2023-03-13T13:11:49;23.75;;;5.18;;
22812;SDS011;11573;51.334;3.244;2023-03-13T13:16:51;25.23;;;5.03;;
22812;SDS011;11573;51.334;3.244;2023-03-13T13:24:58;23.83;;;5.28;;
22812;SDS011;11573;51.334;3.244;2023-03-13T13:30:04;25.48;;;4.90;;
22812;SDS011;11573;51.334;3.244;2023-03-13T13:35:19;32.00;;;5.95;;
22812;SDS011;11573;51.334;3.244;2023-03-13T13:37:49;31.05;;;5.65;;
22812;SDS011;11573;51.334;3.244;2023-03-13T13:42:59;22.33;;;4.95;;
22812;SDS011;11573;51.334;3.244;2023-03-13T13:45:30;20.10;;;4.63;;
22812;SDS011;11573;51.334;3.244;2023-03-13T13:51:31;23.95;;;5.32;;
22812;SDS011;11573;51.334;3.244;2023-03-13T13:53:52;27.38;;;4.90;;
22812;SDS011;11573;51.334;3.244;2023-03-13T13:57:05;26.77;;;5.63;;
22812;SDS011;11573;51.334;3.244;2023-03-13T14:02:13;30.42;;;5.78;;
22812;SDS011;11573;51.334;3.244;2023-03-13T14:04:46;22.67;;;5.32;;
22812;SDS011;11573;51.334;3.244;2023-03-13T14:10:20;22.30;;;5.40;;
22812;SDS011;11573;51.334;3.244;2023-03-13T14:13:09;26.85;;;5.18;;
22812;SDS011;11573;51.334;3.244;2023-03-13T14:15:40;26.77;;;5.78;;
22812;SDS011;11573;51.334;3.244;2023-03-13T14:18:25;20.50;;;5.22;;
22812;SDS011;11573;51.334;3.244;2023-03-13T14:21:00;29.80;;;4.90;;
22812;SDS011;11573;51.334;3.244;2023-03-13T14:23:38;27.15;;;5.30;;
22812;SDS011;11573;51.334;3.244;2023-03-13T14:26:21;25.15;;;5.78;;
22812;SDS011;11573;51.334;3.244;2023-03-13T14:28:51;26.52;;;5.68;;
22812;SDS011;11573;51.334;3.244;2023-03-13T14:31:27;23.55;;;5.32;;
22812;SDS011;11573;51.334;3.244;2023-03-13T14:33:56;19.88;;;5.28;;
22812;SDS011;11573;51.334;3.244;2023-03-13T14:36:25;26.02;;;5.60;;
22812;SDS011;11573;51.334;3.244;2023-03-13T14:38:53;25.77;;;5.13;;
22812;SDS011;11573;51.334;3.244;2023-03-13T14:41:23;22.00;;;5.65;;
22812;SDS011;11573;51.334;3.244;2023-03-13T14:44:03;25.05;;;5.53;;
22812;SDS011;11573;51.334;3.244;2023-03-13T14:46:35;24.10;;;5.30;;
22812;SDS011;11573;51.334;3.244;2023-03-13T14:51:44;26.95;;;5.55;;
22812;SDS011;11573;51.334;3.244;2023-03-13T14:57:56;28.90;;;5.28;;
22812;SDS011;11573;51.334;3.244;2023-03-13T15:00:35;28.17;;;5.68;;
22812;SDS011;11573;51.334;3.244;2023-03-13T15:05:46;26.17;;;5.18;;
22812;SDS011;11573;51.334;3.244;2023-03-13T15:08:40;23.45;;;5.32;;
22812;SDS011;11573;51.334;3.244;2023-03-13T15:11:16;23.95;;;5.28;;
22812;SDS011;11573;51.334;3.244;2023-03-13T15:13:53;22.13;;;4.82;;
22812;SDS011;11573;51.334;3.244;2023-03-13T15:16:21;28.23;;;5.38;;
22812;SDS011;11573;51.334;3.244;2023-03-13T15:18:49;24.20;;;5.70;;
22812;SDS011;11573;51.334;3.244;2023-03-13T15:21:27;28.52;;;6.13;;
22812;SDS011;11573;51.334;3.244;2023-03-13T15:24:00;31.30;;;5.97;;
22812;SDS011;11573;51.334;3.244;2023-03-13T15:26:35;27.13;;;5.97;;
22812;SDS011;11573;51.334;3.244;2023-03-13T15:29:02;26.55;;;5.93;;
22812;SDS011;11573;51.334;3.244;2023-03-13T15:31:29;25.25;;;5.03;;
22812;SDS011;11573;51.334;3.244;2023-03-13T15:33:58;22.45;;;4.88;;
22812;SDS011;11573;51.334;3.244;2023-03-13T15:36:26;28.20;;;6.28;;
22812;SDS011;11573;51.334;3.244;2023-03-13T15:38:54;25.92;;;5.43;;
22812;SDS011;11573;51.334;3.244;2023-03-13T15:41:22;25.20;;;5.22;;
22812;SDS011;11573;51.334;3.244;2023-03-13T15:43:49;39.53;;;6.03;;
22812;SDS011;11573;51.334;3.244;2023-03-13T15:46:18;25.20;;;5.07;;
22812;SDS011;11573;51.334;3.244;2023-03-13T15:48:46;24.65;;;5.38;;
22812;SDS011;11573;51.334;3.244;2023-03-13T15:51:14;29.70;;;5.32;;
22812;SDS011;11573;51.334;3.244;2023-03-13T15:53:41;33.13;;;5.65;;
22812;SDS011;11573;51.334;3.244;2023-03-13T15:56:16;28.38;;;5.88;;
22812;SDS011;11573;51.334;3.244;2023-03-13T15:58:45;22.98;;;5.15;;
22812;SDS011;11573;51.334;3.244;2023-03-13T16:01:13;27.38;;;5.30;;
22812;SDS011;11573;51.334;3.244;2023-03-13T16:03:41;26.67;;;5.78;;
22812;SDS011;11573;51.334;3.244;2023-03-13T16:06:13;26.10;;;5.90;;
22812;SDS011;11573;51.334;3.244;2023-03-13T16:08:42;28.63;;;5.45;;
22812;SDS011;11573;51.334;3.244;2023-03-13T16:11:11;27.88;;;6.43;;
22812;SDS011;11573;51.334;3.244;2023-03-13T16:13:40;27.48;;;6.55;;
22812;SDS011;11573;51.334;3.244;2023-03-13T16:18:41;34.93;;;6.50;;
22812;SDS011;11573;51.334;3.244;2023-03-13T16:21:10;29.30;;;6.47;;
22812;SDS011;11573;51.334;3.244;2023-03-13T16:23:42;29.27;;;6.22;;
22812;SDS011;11573;51.334;3.244;2023-03-13T16:26:16;32.20;;;6.18;;
22812;SDS011;11573;51.334;3.244;2023-03-13T16:28:46;29.63;;;6.75;;
22812;SDS011;11573;51.334;3.244;2023-03-13T16:31:17;29.50;;;5.57;;
22812;SDS011;11573;51.334;3.244;2023-03-13T16:33:46;34.25;;;6.35;;
22812;SDS011;11573;51.334;3.244;2023-03-13T16:36:17;31.88;;;6.85;;
22812;SDS011;11573;51.334;3.244;2023-03-13T16:38:46;24.17;;;5.95;;
22812;SDS011;11573;51.334;3.244;2023-03-13T16:41:15;24.60;;;5.35;;
22812;SDS011;11573;51.334;3.244;2023-03-13T16:43:43;34.35;;;6.53;;
22812;SDS011;11573;51.334;3.244;2023-03-13T16:46:15;27.13;;;6.00;;
22812;SDS011;11573;51.334;3.244;2023-03-13T16:48:43;28.20;;;6.13;;
22812;SDS011;11573;51.334;3.244;2023-03-13T16:51:15;23.70;;;5.85;;
22812;SDS011;11573;51.334;3.244;2023-03-13T16:53:43;32.67;;;6.13;;
22812;SDS011;11573;51.334;3.244;2023-03-13T16:58:55;26.38;;;5.72;;
22812;SDS011;11573;51.334;3.244;2023-03-13T17:01:23;25.55;;;5.57;;
22812;SDS011;11573;51.334;3.244;2023-03-13T17:03:51;24.70;;;5.68;;
22812;SDS011;11573;51.334;3.244;2023-03-13T17:06:22;22.65;;;5.38;;
22812;SDS011;11573;51.334;3.244;2023-03-13T17:08:52;27.40;;;5.95;;
22812;SDS011;11573;51.334;3.244;2023-03-13T17:11:19;28.25;;;6.07;;
22812;SDS011;11573;51.334;3.244;2023-03-13T17:13:48;28.30;;;6.07;;
22812;SDS011;11573;51.334;3.244;2023-03-13T17:16:17;32.05;;;5.32;;
22812;SDS011;11573;51.334;3.244;2023-03-13T17:18:47;28.83;;;6.78;;
22812;SDS011;11573;51.334;3.244;2023-03-13T17:21:21;34.50;;;5.78;;
22812;SDS011;11573;51.334;3.244;2023-03-13T17:23:49;23.83;;;6.38;;
22812;SDS011;11573;51.334;3.244;2023-03-13T17:26:24;29.95;;;5.72;;
22812;SDS011;11573;51.334;3.244;2023-03-13T17:28:55;28.88;;;6.18;;
22812;SDS011;11573;51.334;3.244;2023-03-13T17:31:23;25.45;;;5.60;;